Terminal Aerodrome Forecast
Issued by NWS Wakefield, VA

Home | Current Version | Previous Version | Text Only | Print | Product List | Glossary On
Versions: 1 2 3 4 5 6 7 8 9 10 11 12 13 14 15 16 17 18 19
000
FTUS41 KAKQ 220200 AAB
TAFSBY
TAF AMD
KSBY 220216Z 2202/2224 13004KT P6SM SCT100 BKN250
      TEMPO 2202/2206 4SM -RA BR BKN015 OVC050
     FM220700 00000KT 2SM BR OVC020
     FM221400 06004KT P6SM SCT050 BKN200=

USA.gov is the U.S. government's official web portal to all federal, state and local government web resources and services.